sensor_id;sensor_type;location;lat;lon;timestamp;temperature;humidity
32398;DHT22;19892;45.402;8.924;2022-07-05T00:01:09;22.80;97.90
32398;DHT22;19892;45.402;8.924;2022-07-05T00:03:35;22.80;97.80
32398;DHT22;19892;45.402;8.924;2022-07-05T00:09:04;22.90;98.30
32398;DHT22;19892;45.402;8.924;2022-07-05T00:11:30;22.90;98.30
32398;DHT22;19892;45.402;8.924;2022-07-05T00:13:55;22.80;98.40
32398;DHT22;19892;45.402;8.924;2022-07-05T00:16:21;22.80;98.80
32398;DHT22;19892;45.402;8.924;2022-07-05T00:18:47;22.80;99.00
32398;DHT22;19892;45.402;8.924;2022-07-05T00:24:16;22.70;99.50
32398;DHT22;19892;45.402;8.924;2022-07-05T00:26:41;22.70;99.60
32398;DHT22;19892;45.402;8.924;2022-07-05T00:29:07;22.60;99.70
32398;DHT22;19892;45.402;8.924;2022-07-05T00:31:33;22.60;99.90
32398;DHT22;19892;45.402;8.924;2022-07-05T00:33:58;22.60;99.90
32398;DHT22;19892;45.402;8.924;2022-07-05T00:39:27;22.60;99.80
32398;DHT22;19892;45.402;8.924;2022-07-05T00:41:53;22.70;99.80
32398;DHT22;19892;45.402;8.924;2022-07-05T00:44:27;22.80;99.80
32398;DHT22;19892;45.402;8.924;2022-07-05T00:46:53;22.80;99.90
32398;DHT22;19892;45.402;8.924;2022-07-05T00:49:19;22.80;99.80
32398;DHT22;19892;45.402;8.924;2022-07-05T00:51:44;22.80;99.90
32398;DHT22;19892;45.402;8.924;2022-07-05T00:54:10;22.40;99.90
32398;DHT22;19892;45.402;8.924;2022-07-05T00:59:39;20.60;99.90
32398;DHT22;19892;45.402;8.924;2022-07-05T01:02:05;22.60;99.90
32398;DHT22;19892;45.402;8.924;2022-07-05T01:04:30;20.40;99.90
32398;DHT22;19892;45.402;8.924;2022-07-05T01:09:59;20.20;99.90
32398;DHT22;19892;45.402;8.924;2022-07-05T01:12:25;20.30;99.90
32398;DHT22;19892;45.402;8.924;2022-07-05T01:14:51;20.20;99.90
32398;DHT22;19892;45.402;8.924;2022-07-05T01:20:20;20.00;99.90
32398;DHT22;19892;45.402;8.924;2022-07-05T01:22:49;20.10;99.90
32398;DHT22;19892;45.402;8.924;2022-07-05T01:25:16;20.20;99.90
32398;DHT22;19892;45.402;8.924;2022-07-05T01:27:42;20.50;99.90
32398;DHT22;19892;45.402;8.924;2022-07-05T01:30:08;20.60;99.90
32398;DHT22;19892;45.402;8.924;2022-07-05T01:35:37;20.80;99.90
32398;DHT22;19892;45.402;8.924;2022-07-05T01:38:03;20.70;99.90
32398;DHT22;19892;45.402;8.924;2022-07-05T01:40:29;20.90;99.90
32398;DHT22;19892;45.402;8.924;2022-07-05T01:42:55;20.90;99.90
32398;DHT22;19892;45.402;8.924;2022-07-05T01:45:20;21.00;99.90
32398;DHT22;19892;45.402;8.924;2022-07-05T01:48:08;21.00;99.90
32398;DHT22;19892;45.402;8.924;2022-07-05T01:50:36;21.10;99.90
32398;DHT22;19892;45.402;8.924;2022-07-05T01:56:12;21.10;99.90
32398;DHT22;19892;45.402;8.924;2022-07-05T01:58:38;21.10;99.90
32398;DHT22;19892;45.402;8.924;2022-07-05T02:01:03;21.20;99.90
32398;DHT22;19892;45.402;8.924;2022-07-05T02:03:29;21.30;99.90
32398;DHT22;19892;45.402;8.924;2022-07-05T02:05:55;21.30;99.90
32398;DHT22;19892;45.402;8.924;2022-07-05T02:11:23;21.50;99.90
32398;DHT22;19892;45.402;8.924;2022-07-05T02:13:49;21.50;99.90
32398;DHT22;19892;45.402;8.924;2022-07-05T02:16:15;21.50;99.90
32398;DHT22;19892;45.402;8.924;2022-07-05T02:18:41;21.70;99.90
32398;DHT22;19892;45.402;8.924;2022-07-05T02:21:07;21.60;99.90
32398;DHT22;19892;45.402;8.924;2022-07-05T02:26:35;21.70;99.90
32398;DHT22;19892;45.402;8.924;2022-07-05T02:29:02;21.80;99.90
32398;DHT22;19892;45.402;8.924;2022-07-05T02:31:28;21.80;99.90
32398;DHT22;19892;45.402;8.924;2022-07-05T02:36:57;21.70;99.90
32398;DHT22;19892;45.402;8.924;2022-07-05T02:39:22;21.80;99.90
32398;DHT22;19892;45.402;8.924;2022-07-05T02:41:48;21.80;99.90
32398;DHT22;19892;45.402;8.924;2022-07-05T02:47:17;21.80;99.90
32398;DHT22;19892;45.402;8.924;2022-07-05T02:49:42;21.70;99.90
32398;DHT22;19892;45.402;8.924;2022-07-05T02:52:08;21.70;99.90
32398;DHT22;19892;45.402;8.924;2022-07-05T02:54:34;21.70;99.90
32398;DHT22;19892;45.402;8.924;2022-07-05T02:57:00;21.70;99.90
32398;DHT22;19892;45.402;8.924;2022-07-05T02:59:26;21.70;99.90
32398;DHT22;19892;45.402;8.924;2022-07-05T03:01:52;21.80;99.90
32398;DHT22;19892;45.402;8.924;2022-07-05T03:07:20;21.80;99.90
32398;DHT22;19892;45.402;8.924;2022-07-05T03:12:49;21.70;99.90
32398;DHT22;19892;45.402;8.924;2022-07-05T03:15:14;21.60;99.90
32398;DHT22;19892;45.402;8.924;2022-07-05T03:17:40;21.50;99.90
32398;DHT22;19892;45.402;8.924;2022-07-05T03:20:06;21.50;99.90
32398;DHT22;19892;45.402;8.924;2022-07-05T03:22:32;21.50;99.90
32398;DHT22;19892;45.402;8.924;2022-07-05T03:28:01;21.50;99.90
32398;DHT22;19892;45.402;8.924;2022-07-05T03:30:26;21.40;99.90
32398;DHT22;19892;45.402;8.924;2022-07-05T03:32:52;21.40;99.90
32398;DHT22;19892;45.402;8.924;2022-07-05T03:35:18;21.40;99.90
32398;DHT22;19892;45.402;8.924;2022-07-05T03:37:43;21.40;99.90
32398;DHT22;19892;45.402;8.924;2022-07-05T03:43:12;21.40;99.90
32398;DHT22;19892;45.402;8.924;2022-07-05T03:45:38;21.50;99.90
32398;DHT22;19892;45.402;8.924;2022-07-05T03:48:04;21.50;99.90
32398;DHT22;19892;45.402;8.924;2022-07-05T03:53:33;21.40;99.90
32398;DHT22;19892;45.402;8.924;2022-07-05T03:55:58;21.40;99.90
32398;DHT22;19892;45.402;8.924;2022-07-05T03:58:24;21.40;99.90
32398;DHT22;19892;45.402;8.924;2022-07-05T04:03:53;21.40;99.90
32398;DHT22;19892;45.402;8.924;2022-07-05T04:06:18;21.40;99.90
32398;DHT22;19892;45.402;8.924;2022-07-05T04:08:44;21.50;99.90
32398;DHT22;19892;45.402;8.924;2022-07-05T04:11:10;21.50;99.90
32398;DHT22;19892;45.402;8.924;2022-07-05T04:13:38;21.60;99.90
32398;DHT22;19892;45.402;8.924;2022-07-05T04:19:07;21.60;99.90
32398;DHT22;19892;45.402;8.924;2022-07-05T04:21:33;21.70;99.90
32398;DHT22;19892;45.402;8.924;2022-07-05T04:23:58;21.70;99.90
32398;DHT22;19892;45.402;8.924;2022-07-05T04:26:24;21.70;99.90
32398;DHT22;19892;45.402;8.924;2022-07-05T04:28:50;21.80;99.90
32398;DHT22;19892;45.402;8.924;2022-07-05T04:34:19;21.90;99.90
32398;DHT22;19892;45.402;8.924;2022-07-05T04:39:48;22.00;99.90
32398;DHT22;19892;45.402;8.924;2022-07-05T04:42:13;22.00;99.90
32398;DHT22;19892;45.402;8.924;2022-07-05T04:44:39;22.00;99.90
32398;DHT22;19892;45.402;8.924;2022-07-05T04:47:05;22.10;99.90
32398;DHT22;19892;45.402;8.924;2022-07-05T04:49:31;22.20;99.90
32398;DHT22;19892;45.402;8.924;2022-07-05T04:54:59;22.30;99.90
32398;DHT22;19892;45.402;8.924;2022-07-05T04:57:25;22.40;99.90
32398;DHT22;19892;45.402;8.924;2022-07-05T04:59:51;22.40;99.90
32398;DHT22;19892;45.402;8.924;2022-07-05T05:05:20;22.40;99.90
32398;DHT22;19892;45.402;8.924;2022-07-05T05:07:46;22.50;99.90
32398;DHT22;19892;45.402;8.924;2022-07-05T05:10:12;22.50;99.90
32398;DHT22;19892;45.402;8.924;2022-07-05T05:12:38;22.60;99.90
32398;DHT22;19892;45.402;8.924;2022-07-05T05:15:04;22.70;99.90
32398;DHT22;19892;45.402;8.924;2022-07-05T05:20:37;22.70;99.90
32398;DHT22;19892;45.402;8.924;2022-07-05T05:23:02;22.90;99.90
32398;DHT22;19892;45.402;8.924;2022-07-05T05:25:28;22.90;99.90
32398;DHT22;19892;45.402;8.924;2022-07-05T05:30:59;23.00;99.90
32398;DHT22;19892;45.402;8.924;2022-07-05T05:33:24;23.10;99.90
32398;DHT22;19892;45.402;8.924;2022-07-05T05:35:50;23.10;99.90
32398;DHT22;19892;45.402;8.924;2022-07-05T05:41:26;23.00;99.90
32398;DHT22;19892;45.402;8.924;2022-07-05T05:43:52;23.20;99.90
32398;DHT22;19892;45.402;8.924;2022-07-05T05:46:17;23.30;99.90
32398;DHT22;19892;45.402;8.924;2022-07-05T05:51:46;23.30;99.90
32398;DHT22;19892;45.402;8.924;2022-07-05T05:57:15;23.50;99.90
32398;DHT22;19892;45.402;8.924;2022-07-05T05:59:41;23.60;99.90
32398;DHT22;19892;45.402;8.924;2022-07-05T06:02:07;23.70;99.90
32398;DHT22;19892;45.402;8.924;2022-07-05T06:04:33;23.60;99.90
32398;DHT22;19892;45.402;8.924;2022-07-05T06:06:58;23.60;99.90
32398;DHT22;19892;45.402;8.924;2022-07-05T06:09:24;23.70;99.90
32398;DHT22;19892;45.402;8.924;2022-07-05T06:11:50;23.70;99.90
32398;DHT22;19892;45.402;8.924;2022-07-05T06:14:15;23.80;99.90
32398;DHT22;19892;45.402;8.924;2022-07-05T06:16:41;23.70;99.90
32398;DHT22;19892;45.402;8.924;2022-07-05T06:22:10;23.80;99.90
32398;DHT22;19892;45.402;8.924;2022-07-05T06:24:36;24.20;99.90
32398;DHT22;19892;45.402;8.924;2022-07-05T06:27:01;24.20;99.90
32398;DHT22;19892;45.402;8.924;2022-07-05T06:32:30;24.40;99.90
32398;DHT22;19892;45.402;8.924;2022-07-05T06:34:56;24.30;99.90
32398;DHT22;19892;45.402;8.924;2022-07-05T06:37:22;24.50;99.90
32398;DHT22;19892;45.402;8.924;2022-07-05T06:42:51;24.30;99.90
32398;DHT22;19892;45.402;8.924;2022-07-05T06:45:17;24.10;99.90
32398;DHT22;19892;45.402;8.924;2022-07-05T06:47:43;24.30;99.90
32398;DHT22;19892;45.402;8.924;2022-07-05T06:50:09;24.10;99.90
32398;DHT22;19892;45.402;8.924;2022-07-05T06:52:36;24.10;99.90
32398;DHT22;19892;45.402;8.924;2022-07-05T06:58:05;24.30;99.90
32398;DHT22;19892;45.402;8.924;2022-07-05T07:00:31;24.30;99.90
32398;DHT22;19892;45.402;8.924;2022-07-05T07:02:57;24.30;99.90
32398;DHT22;19892;45.402;8.924;2022-07-05T07:08:26;24.10;99.90
32398;DHT22;19892;45.402;8.924;2022-07-05T07:11:21;24.20;99.90
32398;DHT22;19892;45.402;8.924;2022-07-05T07:13:47;24.30;99.90
32398;DHT22;19892;45.402;8.924;2022-07-05T07:16:13;24.00;99.90
32398;DHT22;19892;45.402;8.924;2022-07-05T07:18:39;23.80;99.90
32398;DHT22;19892;45.402;8.924;2022-07-05T07:21:05;23.90;99.90
32398;DHT22;19892;45.402;8.924;2022-07-05T07:23:30;24.10;99.90
32398;DHT22;19892;45.402;8.924;2022-07-05T07:25:56;24.30;99.90
32398;DHT22;19892;45.402;8.924;2022-07-05T07:28:22;24.30;99.90
32398;DHT22;19892;45.402;8.924;2022-07-05T07:30:49;24.60;99.90
32398;DHT22;19892;45.402;8.924;2022-07-05T07:33:15;24.60;99.90
32398;DHT22;19892;45.402;8.924;2022-07-05T07:38:44;24.90;99.90
32398;DHT22;19892;45.402;8.924;2022-07-05T07:41:09;25.00;99.90
32398;DHT22;19892;45.402;8.924;2022-07-05T07:43:35;25.40;99.90
32398;DHT22;19892;45.402;8.924;2022-07-05T07:46:01;25.70;99.90
32398;DHT22;19892;45.402;8.924;2022-07-05T07:48:26;26.00;99.90
32398;DHT22;19892;45.402;8.924;2022-07-05T07:53:57;26.20;99.90
32398;DHT22;19892;45.402;8.924;2022-07-05T07:56:22;26.40;99.90
32398;DHT22;19892;45.402;8.924;2022-07-05T07:58:48;26.40;99.90
32398;DHT22;19892;45.402;8.924;2022-07-05T08:04:17;26.70;99.90
32398;DHT22;19892;45.402;8.924;2022-07-05T08:06:43;26.70;99.90
32398;DHT22;19892;45.402;8.924;2022-07-05T08:09:09;26.70;99.90
32398;DHT22;19892;45.402;8.924;2022-07-05T08:11:35;26.80;99.90
32398;DHT22;19892;45.402;8.924;2022-07-05T08:14:01;26.80;99.90
32398;DHT22;19892;45.402;8.924;2022-07-05T08:19:30;27.20;99.90
32398;DHT22;19892;45.402;8.924;2022-07-05T08:22:14;27.40;99.90
32398;DHT22;19892;45.402;8.924;2022-07-05T08:24:40;27.60;99.90
32398;DHT22;19892;45.402;8.924;2022-07-05T08:27:06;27.80;99.90
32398;DHT22;19892;45.402;8.924;2022-07-05T08:29:31;28.10;99.90
32398;DHT22;19892;45.402;8.924;2022-07-05T08:31:57;28.10;99.90
32398;DHT22;19892;45.402;8.924;2022-07-05T08:34:23;28.30;99.90
32398;DHT22;19892;45.402;8.924;2022-07-05T08:36:49;28.50;99.90
32398;DHT22;19892;45.402;8.924;2022-07-05T08:39:15;28.60;99.90
32398;DHT22;19892;45.402;8.924;2022-07-05T08:44:44;28.60;99.90
32398;DHT22;19892;45.402;8.924;2022-07-05T08:47:11;28.50;99.90
32398;DHT22;19892;45.402;8.924;2022-07-05T08:49:38;28.30;99.90
32398;DHT22;19892;45.402;8.924;2022-07-05T08:55:07;28.30;99.90
32398;DHT22;19892;45.402;8.924;2022-07-05T08:57:33;28.30;99.90
32398;DHT22;19892;45.402;8.924;2022-07-05T08:59:58;28.20;99.90
32398;DHT22;19892;45.402;8.924;2022-07-05T09:02:24;28.20;99.90
32398;DHT22;19892;45.402;8.924;2022-07-05T09:04:50;28.20;99.90
32398;DHT22;19892;45.402;8.924;2022-07-05T09:07:17;28.20;99.90
32398;DHT22;19892;45.402;8.924;2022-07-05T09:09:43;28.20;99.90
32398;DHT22;19892;45.402;8.924;2022-07-05T09:15:25;28.60;99.90
32398;DHT22;19892;45.402;8.924;2022-07-05T09:17:51;29.00;99.90
32398;DHT22;19892;45.402;8.924;2022-07-05T09:20:17;29.30;99.90
32398;DHT22;19892;45.402;8.924;2022-07-05T09:22:47;29.20;99.90
32398;DHT22;19892;45.402;8.924;2022-07-05T09:25:14;29.10;99.90
32398;DHT22;19892;45.402;8.924;2022-07-05T09:30:43;29.20;99.90
32398;DHT22;19892;45.402;8.924;2022-07-05T09:33:10;29.00;99.90
32398;DHT22;19892;45.402;8.924;2022-07-05T09:35:39;29.10;99.90
32398;DHT22;19892;45.402;8.924;2022-07-05T09:38:05;29.20;99.90
32398;DHT22;19892;45.402;8.924;2022-07-05T09:40:48;29.20;99.90
32398;DHT22;19892;45.402;8.924;2022-07-05T09:43:15;29.20;99.90
32398;DHT22;19892;45.402;8.924;2022-07-05T09:48:17;29.60;99.90
32398;DHT22;19892;45.402;8.924;2022-07-05T09:50:43;29.80;99.90
32398;DHT22;19892;45.402;8.924;2022-07-05T09:53:11;29.50;99.90
32398;DHT22;19892;45.402;8.924;2022-07-05T09:55:37;29.40;99.90
32398;DHT22;19892;45.402;8.924;2022-07-05T10:07:28;29.90;99.90
32398;DHT22;19892;45.402;8.924;2022-07-05T10:09:54;29.70;99.90
32398;DHT22;19892;45.402;8.924;2022-07-05T10:15:27;30.20;99.90
32398;DHT22;19892;45.402;8.924;2022-07-05T10:20:55;30.50;98.90
32398;DHT22;19892;45.402;8.924;2022-07-05T10:26:24;30.70;99.40
32398;DHT22;19892;45.402;8.924;2022-07-05T10:28:51;30.70;98.90
32398;DHT22;19892;45.402;8.924;2022-07-05T10:31:17;30.80;99.50
32398;DHT22;19892;45.402;8.924;2022-07-05T10:36:47;30.60;96.10
32398;DHT22;19892;45.402;8.924;2022-07-05T10:39:13;30.50;97.70
32398;DHT22;19892;45.402;8.924;2022-07-05T10:41:39;30.60;98.30
32398;DHT22;19892;45.402;8.924;2022-07-05T10:44:06;30.60;96.30
32398;DHT22;19892;45.402;8.924;2022-07-05T10:46:33;30.50;96.80
32398;DHT22;19892;45.402;8.924;2022-07-05T10:52:02;30.80;96.10
32398;DHT22;19892;45.402;8.924;2022-07-05T10:54:30;30.50;94.90
32398;DHT22;19892;45.402;8.924;2022-07-05T11:02:27;30.60;95.40
32398;DHT22;19892;45.402;8.924;2022-07-05T11:04:56;30.70;95.60
32398;DHT22;19892;45.402;8.924;2022-07-05T11:10:06;31.10;96.20
32398;DHT22;19892;45.402;8.924;2022-07-05T11:12:35;31.40;96.60
32398;DHT22;19892;45.402;8.924;2022-07-05T11:15:05;31.60;95.60
32398;DHT22;19892;45.402;8.924;2022-07-05T11:17:33;31.80;94.20
32398;DHT22;19892;45.402;8.924;2022-07-05T11:23:08;31.50;93.40
32398;DHT22;19892;45.402;8.924;2022-07-05T11:25:35;31.30;93.80
32398;DHT22;19892;45.402;8.924;2022-07-05T11:28:16;31.30;94.00
32398;DHT22;19892;45.402;8.924;2022-07-05T11:30:45;31.40;93.20
32398;DHT22;19892;45.402;8.924;2022-07-05T11:36:21;31.80;93.70
32398;DHT22;19892;45.402;8.924;2022-07-05T11:41:51;32.00;92.60
32398;DHT22;19892;45.402;8.924;2022-07-05T11:47:19;32.10;94.30
32398;DHT22;19892;45.402;8.924;2022-07-05T11:52:48;32.40;94.80
32398;DHT22;19892;45.402;8.924;2022-07-05T11:58:20;32.60;92.70
32398;DHT22;19892;45.402;8.924;2022-07-05T12:03:56;32.40;93.90
32398;DHT22;19892;45.402;8.924;2022-07-05T12:06:22;32.50;93.40
32398;DHT22;19892;45.402;8.924;2022-07-05T12:09:01;32.60;94.90
32398;DHT22;19892;45.402;8.924;2022-07-05T12:11:26;32.70;94.20
32398;DHT22;19892;45.402;8.924;2022-07-05T12:14:11;32.70;93.70
32398;DHT22;19892;45.402;8.924;2022-07-05T12:16:44;32.80;94.30
32398;DHT22;19892;45.402;8.924;2022-07-05T12:19:10;32.90;96.70
32398;DHT22;19892;45.402;8.924;2022-07-05T12:21:36;32.90;99.00
32398;DHT22;19892;45.402;8.924;2022-07-05T12:24:02;32.90;96.70
32398;DHT22;19892;45.402;8.924;2022-07-05T12:26:28;32.90;94.70
32398;DHT22;19892;45.402;8.924;2022-07-05T12:28:55;32.90;94.60
32398;DHT22;19892;45.402;8.924;2022-07-05T12:34:24;33.00;94.10
32398;DHT22;19892;45.402;8.924;2022-07-05T12:36:49;33.00;91.40
32398;DHT22;19892;45.402;8.924;2022-07-05T12:39:18;32.90;92.60
32398;DHT22;19892;45.402;8.924;2022-07-05T12:44:47;33.00;92.50
32398;DHT22;19892;45.402;8.924;2022-07-05T12:47:13;33.10;91.00
32398;DHT22;19892;45.402;8.924;2022-07-05T12:49:52;33.00;89.70
32398;DHT22;19892;45.402;8.924;2022-07-05T12:52:18;33.20;88.60
32398;DHT22;19892;45.402;8.924;2022-07-05T12:54:44;33.20;91.80
32398;DHT22;19892;45.402;8.924;2022-07-05T12:57:28;33.40;91.60
32398;DHT22;19892;45.402;8.924;2022-07-05T13:03:16;33.50;94.20
32398;DHT22;19892;45.402;8.924;2022-07-05T13:08:56;33.50;89.80
32398;DHT22;19892;45.402;8.924;2022-07-05T13:14:29;33.70;89.90
32398;DHT22;19892;45.402;8.924;2022-07-05T13:19:57;33.80;89.40
32398;DHT22;19892;45.402;8.924;2022-07-05T13:25:28;34.00;86.60
32398;DHT22;19892;45.402;8.924;2022-07-05T13:27:53;34.10;85.60
32398;DHT22;19892;45.402;8.924;2022-07-05T13:30:21;33.90;87.10
32398;DHT22;19892;45.402;8.924;2022-07-05T13:32:46;34.00;92.10
32398;DHT22;19892;45.402;8.924;2022-07-05T13:35:12;34.00;86.60
32398;DHT22;19892;45.402;8.924;2022-07-05T13:40:41;34.10;85.60
32398;DHT22;19892;45.402;8.924;2022-07-05T13:43:07;34.20;90.20
32398;DHT22;19892;45.402;8.924;2022-07-05T13:45:33;34.30;87.40
32398;DHT22;19892;45.402;8.924;2022-07-05T13:51:01;34.20;84.10
32398;DHT22;19892;45.402;8.924;2022-07-05T13:53:27;34.20;82.30
32398;DHT22;19892;45.402;8.924;2022-07-05T13:55:53;34.20;86.40
32398;DHT22;19892;45.402;8.924;2022-07-05T13:58:18;34.20;82.70
32398;DHT22;19892;45.402;8.924;2022-07-05T14:00:44;34.20;80.70
32398;DHT22;19892;45.402;8.924;2022-07-05T14:03:10;34.20;83.10
32398;DHT22;19892;45.402;8.924;2022-07-05T14:05:35;34.10;77.90
32398;DHT22;19892;45.402;8.924;2022-07-05T14:11:04;34.10;81.40
32398;DHT22;19892;45.402;8.924;2022-07-05T14:13:30;34.20;78.80
32398;DHT22;19892;45.402;8.924;2022-07-05T14:15:56;34.30;77.60
32398;DHT22;19892;45.402;8.924;2022-07-05T14:21:25;34.90;73.70
32398;DHT22;19892;45.402;8.924;2022-07-05T14:23:50;35.30;71.90
32398;DHT22;19892;45.402;8.924;2022-07-05T14:26:16;35.40;70.70
32398;DHT22;19892;45.402;8.924;2022-07-05T14:31:45;35.80;70.40
32398;DHT22;19892;45.402;8.924;2022-07-05T14:34:11;36.60;70.20
32398;DHT22;19892;45.402;8.924;2022-07-05T14:36:36;37.30;66.70
32398;DHT22;19892;45.402;8.924;2022-07-05T14:39:02;38.20;65.80
32398;DHT22;19892;45.402;8.924;2022-07-05T14:41:28;38.90;63.60
32398;DHT22;19892;45.402;8.924;2022-07-05T14:46:57;39.20;64.50
32398;DHT22;19892;45.402;8.924;2022-07-05T14:49:22;39.80;63.20
32398;DHT22;19892;45.402;8.924;2022-07-05T14:51:48;40.00;63.60
32398;DHT22;19892;45.402;8.924;2022-07-05T14:57:17;40.80;60.70
32398;DHT22;19892;45.402;8.924;2022-07-05T14:59:43;41.40;59.20
32398;DHT22;19892;45.402;8.924;2022-07-05T15:02:08;42.00;59.00
32398;DHT22;19892;45.402;8.924;2022-07-05T15:04:34;42.20;58.20
32398;DHT22;19892;45.402;8.924;2022-07-05T15:07:00;42.30;59.50
32398;DHT22;19892;45.402;8.924;2022-07-05T15:09:26;42.30;59.70
32398;DHT22;19892;45.402;8.924;2022-07-05T15:11:51;42.20;60.20
32398;DHT22;19892;45.402;8.924;2022-07-05T15:14:17;41.30;60.00
32398;DHT22;19892;45.402;8.924;2022-07-05T15:16:43;41.30;59.90
32398;DHT22;19892;45.402;8.924;2022-07-05T15:22:12;41.60;58.70
32398;DHT22;19892;45.402;8.924;2022-07-05T15:24:37;42.20;58.60
32398;DHT22;19892;45.402;8.924;2022-07-05T15:27:03;42.50;57.60
32398;DHT22;19892;45.402;8.924;2022-07-05T15:32:32;42.60;56.70
32398;DHT22;19892;45.402;8.924;2022-07-05T15:34:58;42.90;55.90
32398;DHT22;19892;45.402;8.924;2022-07-05T15:37:24;43.20;55.00
32398;DHT22;19892;45.402;8.924;2022-07-05T15:39:49;43.70;54.70
32398;DHT22;19892;45.402;8.924;2022-07-05T15:42:15;43.70;53.80
32398;DHT22;19892;45.402;8.924;2022-07-05T15:47:47;43.90;54.60
32398;DHT22;19892;45.402;8.924;2022-07-05T15:53:16;43.90;52.70
32398;DHT22;19892;45.402;8.924;2022-07-05T15:55:42;44.30;52.80
32398;DHT22;19892;45.402;8.924;2022-07-05T15:58:08;44.30;52.20
32398;DHT22;19892;45.402;8.924;2022-07-05T16:00:36;44.40;52.40
32398;DHT22;19892;45.402;8.924;2022-07-05T16:03:02;44.80;50.90
32398;DHT22;19892;45.402;8.924;2022-07-05T16:08:30;45.10;50.80
32398;DHT22;19892;45.402;8.924;2022-07-05T16:10:58;45.40;50.90
32398;DHT22;19892;45.402;8.924;2022-07-05T16:13:23;45.50;49.90
32398;DHT22;19892;45.402;8.924;2022-07-05T16:15:50;46.10;50.00
32398;DHT22;19892;45.402;8.924;2022-07-05T16:18:34;46.10;50.40
32398;DHT22;19892;45.402;8.924;2022-07-05T16:21:03;46.10;50.10
32398;DHT22;19892;45.402;8.924;2022-07-05T16:23:31;46.20;49.30
32398;DHT22;19892;45.402;8.924;2022-07-05T16:25:59;46.60;48.60
32398;DHT22;19892;45.402;8.924;2022-07-05T16:28:27;46.90;47.60
32398;DHT22;19892;45.402;8.924;2022-07-05T16:33:56;47.50;48.30
32398;DHT22;19892;45.402;8.924;2022-07-05T16:36:22;47.30;46.70
32398;DHT22;19892;45.402;8.924;2022-07-05T16:38:49;46.90;47.00
32398;DHT22;19892;45.402;8.924;2022-07-05T16:41:15;45.50;47.80
32398;DHT22;19892;45.402;8.924;2022-07-05T16:43:42;44.30;49.10
32398;DHT22;19892;45.402;8.924;2022-07-05T16:46:08;43.00;50.50
32398;DHT22;19892;45.402;8.924;2022-07-05T16:48:37;42.10;52.00
32398;DHT22;19892;45.402;8.924;2022-07-05T16:51:07;41.50;52.30
32398;DHT22;19892;45.402;8.924;2022-07-05T16:53:33;41.00;52.90
32398;DHT22;19892;45.402;8.924;2022-07-05T16:56:01;40.50;54.10
32398;DHT22;19892;45.402;8.924;2022-07-05T16:58:27;40.30;54.20
32398;DHT22;19892;45.402;8.924;2022-07-05T17:03:56;40.00;54.90
32398;DHT22;19892;45.402;8.924;2022-07-05T17:06:22;42.30;52.90
32398;DHT22;19892;45.402;8.924;2022-07-05T17:08:48;43.80;51.50
32398;DHT22;19892;45.402;8.924;2022-07-05T17:14:17;45.70;49.10
32398;DHT22;19892;45.402;8.924;2022-07-05T17:16:43;45.50;49.10
32398;DHT22;19892;45.402;8.924;2022-07-05T17:19:09;45.20;49.50
32398;DHT22;19892;45.402;8.924;2022-07-05T17:21:35;45.00;49.40
32398;DHT22;19892;45.402;8.924;2022-07-05T17:24:02;44.90;50.00
32398;DHT22;19892;45.402;8.924;2022-07-05T17:29:32;44.60;50.70
32398;DHT22;19892;45.402;8.924;2022-07-05T17:31:59;45.10;50.30
32398;DHT22;19892;45.402;8.924;2022-07-05T17:34:24;45.10;49.30
32398;DHT22;19892;45.402;8.924;2022-07-05T17:39:53;45.90;49.10
32398;DHT22;19892;45.402;8.924;2022-07-05T17:42:19;45.50;49.80
32398;DHT22;19892;45.402;8.924;2022-07-05T17:44:45;45.70;49.00
32398;DHT22;19892;45.402;8.924;2022-07-05T17:47:11;45.80;49.00
32398;DHT22;19892;45.402;8.924;2022-07-05T17:49:37;45.80;49.10
32398;DHT22;19892;45.402;8.924;2022-07-05T17:55:06;45.30;49.20
32398;DHT22;19892;45.402;8.924;2022-07-05T17:57:32;45.00;49.70
32398;DHT22;19892;45.402;8.924;2022-07-05T17:59:58;44.70;50.10
32398;DHT22;19892;45.402;8.924;2022-07-05T18:05:27;44.70;50.00
32398;DHT22;19892;45.402;8.924;2022-07-05T18:07:52;44.80;50.10
32398;DHT22;19892;45.402;8.924;2022-07-05T18:10:23;44.70;50.00
32398;DHT22;19892;45.402;8.924;2022-07-05T18:12:49;44.60;50.40
32398;DHT22;19892;45.402;8.924;2022-07-05T18:15:14;44.00;50.60
32398;DHT22;19892;45.402;8.924;2022-07-05T18:20:44;43.10;51.70
32398;DHT22;19892;45.402;8.924;2022-07-05T18:23:10;41.80;52.90
32398;DHT22;19892;45.402;8.924;2022-07-05T18:25:36;39.80;55.00
32398;DHT22;19892;45.402;8.924;2022-07-05T18:28:05;38.00;57.50
32398;DHT22;19892;45.402;8.924;2022-07-05T18:30:31;36.80;59.40
32398;DHT22;19892;45.402;8.924;2022-07-05T18:32:57;36.10;61.40
32398;DHT22;19892;45.402;8.924;2022-07-05T18:35:23;35.80;62.60
32398;DHT22;19892;45.402;8.924;2022-07-05T18:40:51;34.90;65.00
32398;DHT22;19892;45.402;8.924;2022-07-05T18:43:17;34.90;65.60
32398;DHT22;19892;45.402;8.924;2022-07-05T18:45:43;35.70;64.60
32398;DHT22;19892;45.402;8.924;2022-07-05T18:48:12;36.50;63.30
32398;DHT22;19892;45.402;8.924;2022-07-05T18:50:38;36.80;62.50
32398;DHT22;19892;45.402;8.924;2022-07-05T18:56:07;36.30;63.40
32398;DHT22;19892;45.402;8.924;2022-07-05T18:58:33;35.40;65.70
32398;DHT22;19892;45.402;8.924;2022-07-05T19:00:59;34.70;67.60
32398;DHT22;19892;45.402;8.924;2022-07-05T19:06:28;33.50;71.40
32398;DHT22;19892;45.402;8.924;2022-07-05T19:09:12;32.90;73.30
32398;DHT22;19892;45.402;8.924;2022-07-05T19:11:57;32.70;74.50
32398;DHT22;19892;45.402;8.924;2022-07-05T19:14:41;32.50;75.30
32398;DHT22;19892;45.402;8.924;2022-07-05T19:17:06;32.30;76.30
32398;DHT22;19892;45.402;8.924;2022-07-05T19:19:32;32.10;76.80
32398;DHT22;19892;45.402;8.924;2022-07-05T19:21:58;31.80;77.60
32398;DHT22;19892;45.402;8.924;2022-07-05T19:24:24;31.60;78.40
32398;DHT22;19892;45.402;8.924;2022-07-05T19:26:49;31.60;78.90
32398;DHT22;19892;45.402;8.924;2022-07-05T19:32:19;31.60;79.70
32398;DHT22;19892;45.402;8.924;2022-07-05T19:34:46;31.30;79.80
32398;DHT22;19892;45.402;8.924;2022-07-05T19:37:12;31.20;80.90
32398;DHT22;19892;45.402;8.924;2022-07-05T19:42:40;31.30;81.50
32398;DHT22;19892;45.402;8.924;2022-07-05T19:45:06;31.20;81.60
32398;DHT22;19892;45.402;8.924;2022-07-05T19:47:32;31.00;82.50
32398;DHT22;19892;45.402;8.924;2022-07-05T19:49:59;31.10;82.70
32398;DHT22;19892;45.402;8.924;2022-07-05T19:52:24;31.00;82.30
32398;DHT22;19892;45.402;8.924;2022-07-05T19:57:53;31.10;82.30
32398;DHT22;19892;45.402;8.924;2022-07-05T20:00:19;31.20;82.70
32398;DHT22;19892;45.402;8.924;2022-07-05T20:02:45;31.00;82.70
32398;DHT22;19892;45.402;8.924;2022-07-05T20:08:14;30.70;83.90
32398;DHT22;19892;45.402;8.924;2022-07-05T20:10:40;30.70;83.40
32398;DHT22;19892;45.402;8.924;2022-07-05T20:13:06;30.70;83.40